Time;durP1;ratioP1;P1;durP2;ratioP2;P2;SDS_P1;SDS_P2;PMS_P1;PMS_P2;Temp;Humidity;BMP_temperature;BMP_pressure;BME280_temperature;BME280_humidity;BME280_pressure;Samples;Min_cycle;Max_cycle;Signal;HPM_P1;HPM_P2
2021/11/13 00:00:47;;;;;;;;;;;;;;;3.47;73.56;102118.72;1850975;78;20119;-61
2021/11/13 00:03:15;;;;;;;;;;;;;;;3.46;73.44;102121.30;1853048;77;20118;-62
2021/11/13 00:05:44;;;;;;;;;;;;;;;3.49;73.40;102125.25;1859277;77;20150;-61
2021/11/13 00:08:11;;;;;;;;;;;;;;;3.50;73.29;102126.12;1859259;77;20141;-61
2021/11/13 00:10:40;;;;;;;;;;;;;;;3.51;73.20;102129.19;1859318;77;20153;-62
2021/11/13 00:13:10;;;;;;;;;;;;;;;3.47;73.18;102131.74;1859357;77;20123;-61
2021/11/13 00:15:38;;;;;;;;;;;;;;;3.45;73.14;102132.16;1859301;77;20135;-62
2021/11/13 00:18:05;;;;;;;;;;;;;;;3.42;73.12;102130.80;1859170;77;20222;-61
2021/11/13 00:20:33;;;;;;;;;;;;;;;3.40;73.07;102133.81;1859271;77;20169;-61
2021/11/13 00:23:01;;;;;;;;;;;;;;;3.38;73.00;102133.36;1859330;77;20149;-61
2021/11/13 00:25:29;;;;;;;;;;;;;;;3.35;73.00;102134.17;1859326;77;20150;-61
2021/11/13 00:27:57;;;;;;;;;;;;;;;3.34;72.97;102136.34;1859262;77;20115;-61
2021/11/13 00:30:25;;;;;;;;;;;;;;;3.32;72.90;102129.36;1859225;77;20131;-61
2021/11/13 00:32:53;;;;;;;;;;;;;;;3.31;72.87;102129.79;1859299;77;20107;-63
2021/11/13 00:35:21;;;;;;;;;;;;;;;3.29;72.84;102126.30;1859313;77;20158;-61
2021/11/13 00:37:49;;;;;;;;;;;;;;;3.26;72.88;102134.95;1859337;77;20123;-61
2021/11/13 00:40:17;;;;;;;;;;;;;;;3.27;72.84;102141.02;1859262;77;20110;-61
2021/11/13 00:42:47;;;;;;;;;;;;;;;3.26;72.88;102139.27;1859189;77;20127;-61
2021/11/13 00:45:15;;;;;;;;;;;;;;;3.27;72.95;102135.81;1859285;77;20118;-61
2021/11/13 00:47:43;;;;;;;;;;;;;;;3.33;73.36;102142.40;1859288;77;20302;-61
2021/11/13 00:50:13;;;;;;;;;;;;;;;3.44;73.93;102143.41;1859429;77;20118;-61
2021/11/13 00:52:42;;;;;;;;;;;;;;;3.51;73.84;102145.67;1859333;77;20145;-61
2021/11/13 00:55:10;;;;;;;;;;;;;;;3.55;73.72;102150.50;1859293;77;20354;-61
2021/11/13 00:57:38;;;;;;;;;;;;;;;3.55;73.47;102146.16;1859315;77;20370;-62
2021/11/13 01:00:07;;;;;;;;;;;;;;;3.50;73.52;102146.95;1859310;77;20150;-61
2021/11/13 01:02:35;;;;;;;;;;;;;;;3.44;73.67;102139.50;1859287;77;20128;-62
2021/11/13 01:05:03;;;;;;;;;;;;;;;3.47;73.79;102145.20;1859159;77;20118;-61
2021/11/13 01:07:31;;;;;;;;;;;;;;;3.55;73.74;102153.10;1859261;77;20369;-62
2021/11/13 01:09:59;;;;;;;;;;;;;;;3.63;73.51;102144.94;1859242;77;20118;-63
2021/11/13 01:12:27;;;;;;;;;;;;;;;3.68;73.44;102140.67;1859285;77;20110;-61
2021/11/13 01:14:54;;;;;;;;;;;;;;;3.75;73.32;102140.33;1859267;77;20118;-61
2021/11/13 01:17:22;;;;;;;;;;;;;;;3.80;73.68;102137.31;1859297;77;20158;-61
2021/11/13 01:19:50;;;;;;;;;;;;;;;3.84;73.53;102136.52;1859319;77;20122;-61
2021/11/13 01:22:18;;;;;;;;;;;;;;;3.86;73.76;102135.67;1859290;77;20149;-61
2021/11/13 01:24:47;;;;;;;;;;;;;;;3.92;73.84;102140.52;1859209;77;20119;-62
2021/11/13 01:27:15;;;;;;;;;;;;;;;3.98;73.94;102143.17;1859372;77;20362;-61
2021/11/13 01:29:43;;;;;;;;;;;;;;;4.04;73.63;102150.64;1859273;77;20126;-61
2021/11/13 01:32:11;;;;;;;;;;;;;;;4.12;73.44;102151.16;1859278;77;20118;-62
2021/11/13 01:34:39;;;;;;;;;;;;;;;4.18;73.25;102148.16;1859276;77;20161;-61
2021/11/13 01:37:08;;;;;;;;;;;;;;;4.26;73.14;102145.66;1859320;77;20151;-62
2021/11/13 01:39:36;;;;;;;;;;;;;;;4.34;73.06;102145.72;1858198;77;20098;-62
2021/11/13 01:42:04;;;;;;;;;;;;;;;4.42;72.86;102149.25;1859271;77;20162;-61
2021/11/13 01:44:34;;;;;;;;;;;;;;;4.48;72.76;102148.44;1859376;77;20416;-62
2021/11/13 01:47:02;;;;;;;;;;;;;;;4.51;72.65;102146.73;1859541;77;20397;-61
2021/11/13 01:49:30;;;;;;;;;;;;;;;4.53;72.59;102146.31;1859175;77;20150;-61
2021/11/13 01:51:58;;;;;;;;;;;;;;;4.55;72.51;102157.62;1859197;77;20127;-61
2021/11/13 01:54:28;;;;;;;;;;;;;;;4.57;72.46;102161.56;1859339;77;20115;-61
2021/11/13 01:56:55;;;;;;;;;;;;;;;4.58;72.47;102151.14;1859298;77;20365;-61
2021/11/13 01:59:24;;;;;;;;;;;;;;;4.59;72.44;102156.81;1859249;77;20158;-61
2021/11/13 02:01:52;;;;;;;;;;;;;;;4.61;72.68;102152.89;1859394;77;20364;-61
2021/11/13 02:04:20;;;;;;;;;;;;;;;4.56;72.82;102153.30;1857113;77;20150;-61
2021/11/13 02:06:48;;;;;;;;;;;;;;;4.53;72.99;102159.79;1850868;78;20139;-61
2021/11/13 02:09:15;;;;;;;;;;;;;;;4.49;73.15;102161.49;1850910;78;20127;-62
2021/11/13 02:11:43;;;;;;;;;;;;;;;4.44;73.12;102158.86;1850902;78;20118;-62
2021/11/13 02:14:11;;;;;;;;;;;;;;;4.37;73.28;102160.06;1850942;78;20111;-62
2021/11/13 02:16:38;;;;;;;;;;;;;;;4.32;73.62;102156.56;1850872;78;20107;-63
2021/11/13 02:19:07;;;;;;;;;;;;;;;4.30;73.49;102156.55;1850899;78;20182;-62
2021/11/13 02:21:36;;;;;;;;;;;;;;;4.34;73.38;102153.11;1850934;78;20115;-61
2021/11/13 02:24:03;;;;;;;;;;;;;;;4.41;73.48;102160.56;1850942;78;20157;-61
2021/11/13 02:26:31;;;;;;;;;;;;;;;4.46;73.43;102160.16;1850875;78;20119;-61
2021/11/13 02:29:00;;;;;;;;;;;;;;;4.51;73.82;102161.52;1850903;78;20159;-61
2021/11/13 02:31:35;;;;;;;;;;;;;;;4.53;74.24;102171.09;1850829;78;20119;-62
2021/11/13 02:34:04;;;;;;;;;;;;;;;4.54;74.22;102165.02;1850912;78;20231;-61
2021/11/13 02:36:33;;;;;;;;;;;;;;;4.58;74.02;102165.93;1850943;78;20365;-61
2021/11/13 02:39:02;;;;;;;;;;;;;;;4.59;74.47;102168.56;1850940;78;20123;-63
2021/11/13 02:41:29;;;;;;;;;;;;;;;4.56;74.70;102167.66;1850887;78;20385;-62
2021/11/13 02:43:59;;;;;;;;;;;;;;;4.52;75.09;102169.36;1850644;77;20118;-62
2021/11/13 02:46:27;;;;;;;;;;;;;;;4.54;74.81;102163.72;1850914;78;20200;-61
2021/11/13 02:48:56;;;;;;;;;;;;;;;4.55;75.03;102169.36;1850938;78;20111;-61
2021/11/13 02:51:24;;;;;;;;;;;;;;;4.54;75.04;102170.68;1850894;78;20272;-62
2021/11/13 02:53:53;;;;;;;;;;;;;;;4.51;75.27;102167.59;1850895;78;20149;-62
2021/11/13 02:56:21;;;;;;;;;;;;;;;4.54;75.19;102164.16;1850863;78;20151;-62
2021/11/13 02:58:49;;;;;;;;;;;;;;;4.58;74.94;102164.19;1850900;78;20193;-62
2021/11/13 03:01:18;;;;;;;;;;;;;;;4.63;74.77;102165.11;1850884;78;20123;-61
2021/11/13 03:03:50;;;;;;;;;;;;;;;4.69;74.67;102163.41;1849676;77;20123;-61
2021/11/13 03:06:19;;;;;;;;;;;;;;;4.74;74.56;102164.30;1857337;77;20134;-63
2021/11/13 03:08:49;;;;;;;;;;;;;;;4.78;74.40;102168.70;1859210;77;20111;-61
2021/11/13 03:11:17;;;;;;;;;;;;;;;4.84;74.47;102168.74;1858939;77;20126;-62
2021/11/13 03:13:47;;;;;;;;;;;;;;;4.87;74.39;102162.25;1859201;77;20412;-62
2021/11/13 03:16:16;;;;;;;;;;;;;;;4.91;74.30;102164.02;1859201;77;20178;-62
2021/11/13 03:18:44;;;;;;;;;;;;;;;4.96;74.20;102163.62;1859232;77;20102;-61
2021/11/13 03:21:13;;;;;;;;;;;;;;;4.99;74.29;102158.84;1859322;77;20146;-61
2021/11/13 03:23:44;;;;;;;;;;;;;;;5.00;74.59;102161.91;1858896;77;20118;-61
2021/11/13 03:26:16;;;;;;;;;;;;;;;4.99;74.65;102159.70;1859209;77;20123;-61
2021/11/13 03:28:47;;;;;;;;;;;;;;;4.99;74.48;102162.31;1858395;77;20154;-61
2021/11/13 03:31:15;;;;;;;;;;;;;;;4.96;74.80;102158.41;1859154;77;20170;-61
2021/11/13 03:33:43;;;;;;;;;;;;;;;4.90;75.91;102161.39;1859207;77;20106;-61
2021/11/13 03:36:11;;;;;;;;;;;;;;;4.87;75.88;102168.78;1859092;77;20119;-62
2021/11/13 03:38:39;;;;;;;;;;;;;;;4.86;75.58;102174.84;1859199;77;20123;-61
2021/11/13 03:41:08;;;;;;;;;;;;;;;4.88;75.60;102177.47;1859168;77;20115;-61
2021/11/13 03:43:37;;;;;;;;;;;;;;;4.90;75.45;102176.61;1859178;77;20153;-63
2021/11/13 03:46:06;;;;;;;;;;;;;;;4.93;75.53;102170.55;1859193;77;20170;-61
2021/11/13 03:48:34;;;;;;;;;;;;;;;4.95;75.38;102168.39;1859071;77;20119;-62
2021/11/13 03:51:03;;;;;;;;;;;;;;;4.96;75.60;102167.95;1859277;77;20197;-62
2021/11/13 03:53:31;;;;;;;;;;;;;;;4.95;76.47;102171.44;1859279;77;20142;-62
2021/11/13 03:55:59;;;;;;;;;;;;;;;4.96;76.12;102183.61;1859424;77;20150;-62
2021/11/13 03:58:27;;;;;;;;;;;;;;;4.97;76.47;102182.32;1859328;77;20126;-61
2021/11/13 04:00:56;;;;;;;;;;;;;;;4.96;76.16;102181.90;1858761;77;20122;-61
2021/11/13 04:03:24;;;;;;;;;;;;;;;4.98;76.07;102181.88;1859301;77;20307;-62
2021/11/13 04:05:52;;;;;;;;;;;;;;;4.98;76.08;102177.55;1859264;77;20119;-61
2021/11/13 04:08:20;;;;;;;;;;;;;;;4.97;76.06;102182.32;1859287;77;20127;-61
2021/11/13 04:10:48;;;;;;;;;;;;;;;4.99;75.89;102184.50;1859297;77;20122;-61
2021/11/13 04:13:16;;;;;;;;;;;;;;;4.99;76.00;102184.50;1859486;77;20123;-62
2021/11/13 04:15:44;;;;;;;;;;;;;;;4.99;76.21;102189.73;1859218;77;20161;-61
2021/11/13 04:18:12;;;;;;;;;;;;;;;5.02;76.12;102197.59;1859355;77;20118;-61
2021/11/13 04:20:40;;;;;;;;;;;;;;;5.08;76.00;102194.59;1859311;77;20153;-61
2021/11/13 04:23:07;;;;;;;;;;;;;;;5.10;75.85;102195.47;1859296;77;20119;-61
2021/11/13 04:25:35;;;;;;;;;;;;;;;5.12;76.11;102196.35;1859255;77;20200;-61
2021/11/13 04:28:03;;;;;;;;;;;;;;;5.13;75.89;102195.06;1859250;77;20111;-62
2021/11/13 04:30:31;;;;;;;;;;;;;;;5.17;75.75;102198.12;1859274;77;20119;-61
2021/11/13 04:32:59;;;;;;;;;;;;;;;5.18;75.83;102199.00;1859293;77;20153;-61
2021/11/13 04:38:00;;;;;;;;;;;;;;;5.17;76.16;102214.23;1859538;77;20122;-62
2021/11/13 04:40:30;;;;;;;;;;;;;;;5.15;76.41;102208.13;1859332;77;20373;-61
2021/11/13 04:42:57;;;;;;;;;;;;;;;5.20;76.34;102212.52;1859382;77;20127;-62
2021/11/13 04:45:25;;;;;;;;;;;;;;;5.26;76.79;102210.83;1859317;77;20198;-61
2021/11/13 04:47:53;;;;;;;;;;;;;;;5.31;76.67;102211.70;1859311;77;20118;-62
2021/11/13 04:50:22;;;;;;;;;;;;;;;5.36;76.37;102216.09;1859308;77;20158;-61
2021/11/13 04:52:50;;;;;;;;;;;;;;;5.41;76.17;102230.06;1859287;77;20149;-62
2021/11/13 04:55:19;;;;;;;;;;;;;;;5.46;76.50;102227.48;1859238;77;20149;-61
2021/11/13 04:57:47;;;;;;;;;;;;;;;5.50;76.62;102227.08;1859271;77;20131;-61
2021/11/13 05:00:20;;;;;;;;;;;;;;;5.57;76.52;102234.05;1859296;77;20119;-61
2021/11/13 05:02:48;;;;;;;;;;;;;;;5.65;76.26;102233.69;1859292;77;20118;-61
2021/11/13 05:05:17;;;;;;;;;;;;;;;5.74;76.04;102237.66;1859324;77;20122;-61
2021/11/13 05:07:45;;;;;;;;;;;;;;;5.83;75.84;102237.24;1851835;77;20115;-62
2021/11/13 05:10:13;;;;;;;;;;;;;;;5.90;75.60;102238.61;1850899;78;20154;-61
2021/11/13 05:12:41;;;;;;;;;;;;;;;5.98;75.49;102247.37;1851073;78;20156;-61
2021/11/13 05:15:10;;;;;;;;;;;;;;;6.09;75.44;102242.20;1851006;78;20122;-62
2021/11/13 05:17:38;;;;;;;;;;;;;;;6.17;75.34;102243.08;1850934;78;20381;-61
2021/11/13 05:20:09;;;;;;;;;;;;;;;6.25;75.29;102247.47;1851137;78;20412;-62
2021/11/13 05:22:38;;;;;;;;;;;;;;;6.27;75.68;102249.64;1850936;78;20119;-61
2021/11/13 05:25:07;;;;;;;;;;;;;;;6.30;75.49;102245.30;1850939;78;20170;-61
2021/11/13 05:27:34;;;;;;;;;;;;;;;6.49;75.73;102248.86;1850928;78;20388;-61
2021/11/13 05:30:03;;;;;;;;;;;;;;;6.66;75.52;102250.60;1850916;78;20123;-61
2021/11/13 05:32:31;;;;;;;;;;;;;;;6.80;75.25;102251.50;1850896;78;20107;-61
2021/11/13 05:34:59;;;;;;;;;;;;;;;7.24;74.98;102255.00;1850832;78;20405;-61
2021/11/13 05:37:26;;;;;;;;;;;;;;;7.97;74.30;102255.27;1850937;78;20162;-61
2021/11/13 05:39:54;;;;;;;;;;;;;;;8.29;73.66;102254.23;1850950;78;20119;-61
2021/11/13 05:42:22;;;;;;;;;;;;;;;8.69;73.29;102254.90;1850915;78;20178;-61
2021/11/13 05:44:50;;;;;;;;;;;;;;;9.40;72.84;102252.11;1850944;78;20143;-60
2021/11/13 05:47:18;;;;;;;;;;;;;;;9.92;72.52;102247.58;1850835;78;20382;-61
2021/11/13 05:49:46;;;;;;;;;;;;;;;10.08;72.18;102256.63;1850896;78;20190;-60
2021/11/13 05:52:14;;;;;;;;;;;;;;;10.09;71.91;102259.23;1850921;78;20123;-59
2021/11/13 05:54:42;;;;;;;;;;;;;;;10.84;71.08;102261.71;1850953;78;20143;-60
2021/11/13 05:57:10;;;;;;;;;;;;;;;11.75;70.35;102255.72;1850942;78;20123;-60
2021/11/13 05:59:38;;;;;;;;;;;;;;;12.71;69.52;102264.66;1850910;78;20146;-61
2021/11/13 06:02:06;;;;;;;;;;;;;;;13.22;68.97;102259.89;1850857;78;20174;-60
2021/11/13 06:04:34;;;;;;;;;;;;;;;14.06;68.05;102259.38;1850998;78;20143;-60
2021/11/13 06:07:02;;;;;;;;;;;;;;;14.69;66.84;102260.13;1852335;77;20167;-61
2021/11/13 06:09:30;;;;;;;;;;;;;;;15.23;65.64;102259.66;1859237;77;20138;-61
2021/11/13 06:11:58;;;;;;;;;;;;;;;15.56;64.64;102259.41;1859463;77;20345;-60
2021/11/13 06:14:26;;;;;;;;;;;;;;;15.86;63.40;102257.91;1859331;77;20201;-61
2021/11/13 06:16:55;;;;;;;;;;;;;;;15.82;61.40;102260.70;1859163;77;20122;-61
2021/11/13 06:19:23;;;;;;;;;;;;;;;16.12;60.16;102264.45;1859172;77;20377;-60
2021/11/13 06:21:51;;;;;;;;;;;;;;;16.72;60.32;102263.89;1859286;77;20106;-61
2021/11/13 06:24:19;;;;;;;;;;;;;;;17.05;60.28;102260.80;1859236;77;20127;-61
2021/11/13 06:26:46;;;;;;;;;;;;;;;16.64;60.77;102261.55;1859234;77;20123;-61
2021/11/13 06:29:15;;;;;;;;;;;;;;;16.39;60.99;102260.31;1859220;77;20233;-61
2021/11/13 06:31:43;;;;;;;;;;;;;;;17.16;60.04;102262.54;1859354;77;20103;-61
2021/11/13 06:34:11;;;;;;;;;;;;;;;17.86;59.06;102253.73;1859285;77;20123;-60
2021/11/13 06:36:39;;;;;;;;;;;;;;;18.33;57.44;102253.30;1859378;77;20149;-60
2021/11/13 06:39:07;;;;;;;;;;;;;;;18.72;56.57;102248.33;1859225;77;20126;-61
2021/11/13 06:41:35;;;;;;;;;;;;;;;18.99;54.46;102243.91;1859136;77;20115;-61
2021/11/13 06:44:04;;;;;;;;;;;;;;;19.18;52.98;102251.38;1859234;77;20188;-61
2021/11/13 06:46:31;;;;;;;;;;;;;;;19.46;52.71;102249.46;1859238;77;20149;-61
2021/11/13 06:48:59;;;;;;;;;;;;;;;19.93;52.82;102251.89;1859234;77;20123;-61
2021/11/13 06:51:27;;;;;;;;;;;;;;;20.42;52.23;102257.67;1859211;77;20118;-62
2021/11/13 06:53:55;;;;;;;;;;;;;;;20.63;50.88;102255.61;1859225;77;20110;-61
2021/11/13 06:56:23;;;;;;;;;;;;;;;20.75;50.52;102250.89;1859198;77;20145;-61
2021/11/13 06:58:51;;;;;;;;;;;;;;;21.11;50.73;102253.67;1859271;77;20188;-61
2021/11/13 07:01:19;;;;;;;;;;;;;;;21.46;51.21;102250.72;1859232;77;20146;-61
2021/11/13 07:03:46;;;;;;;;;;;;;;;21.77;51.28;102254.19;1859114;77;20171;-60
2021/11/13 07:06:14;;;;;;;;;;;;;;;22.15;50.85;102253.56;1859115;77;20102;-60
2021/11/13 07:08:42;;;;;;;;;;;;;;;22.56;49.93;102254.09;1859074;77;20126;-60
2021/11/13 07:11:10;;;;;;;;;;;;;;;23.00;49.75;102246.22;1859112;77;20122;-60
2021/11/13 07:13:38;;;;;;;;;;;;;;;23.11;46.29;102241.47;1859075;77;20126;-60
2021/11/13 07:16:06;;;;;;;;;;;;;;;23.23;46.36;102251.38;1859107;77;20524;-60
2021/11/13 07:18:34;;;;;;;;;;;;;;;23.15;45.58;102248.83;1859072;77;20385;-60
2021/11/13 07:21:03;;;;;;;;;;;;;;;23.30;45.49;102241.08;1859113;77;20127;-61
2021/11/13 07:23:32;;;;;;;;;;;;;;;22.98;46.41;102246.81;1859300;77;20201;-61
2021/11/13 07:26:00;;;;;;;;;;;;;;;23.03;46.29;102240.63;1859074;77;20161;-60
2021/11/13 07:28:38;;;;;;;;;;;;;;;23.25;46.00;102241.88;1859396;77;20157;-60
2021/11/13 07:31:04;;;;;;;;;;;;;;;23.71;45.74;102230.58;1858946;77;20126;-60
2021/11/13 07:33:32;;;;;;;;;;;;;;;24.34;45.54;102239.98;1859188;77;20115;-62
2021/11/13 07:36:00;;;;;;;;;;;;;;;24.36;43.37;102240.72;1859198;77;20193;-60
2021/11/13 07:38:28;;;;;;;;;;;;;;;24.41;43.38;102243.94;1859428;77;20114;-60
2021/11/13 07:40:56;;;;;;;;;;;;;;;24.49;43.57;102242.88;1859323;77;20111;-61
2021/11/13 07:43:24;;;;;;;;;;;;;;;24.14;43.83;102240.95;1859203;77;20111;-61
2021/11/13 07:45:52;;;;;;;;;;;;;;;23.95;43.46;102239.23;1859218;77;20123;-60
2021/11/13 07:48:20;;;;;;;;;;;;;;;23.12;43.20;102237.83;1859097;77;20111;-61
2021/11/13 07:50:48;;;;;;;;;;;;;;;23.16;43.74;102243.85;1859194;77;20177;-61
2021/11/13 07:53:16;;;;;;;;;;;;;;;24.02;42.77;102244.55;1859231;77;20126;-61
2021/11/13 07:55:44;;;;;;;;;;;;;;;24.63;41.84;102240.54;1859244;77;20106;-60
2021/11/13 07:58:15;;;;;;;;;;;;;;;25.14;41.26;102233.50;1859227;77;20118;-61
2021/11/13 08:00:42;;;;;;;;;;;;;;;25.53;40.32;102231.88;1859151;77;20123;-61
2021/11/13 08:03:10;;;;;;;;;;;;;;;25.73;39.93;102232.49;1859288;77;20111;-61
2021/11/13 08:05:38;;;;;;;;;;;;;;;25.76;40.11;102228.17;1859372;77;20120;-61
2021/11/13 08:08:07;;;;;;;;;;;;;;;25.34;40.07;102233.80;1859192;77;20276;-61
2021/11/13 08:10:41;;;;;;;;;;;;;;;25.45;39.37;102227.56;1859173;77;20149;-60
2021/11/13 08:13:04;;;;;;;;;;;;;;;26.05;39.24;102225.00;1858230;77;20150;-60
2021/11/13 08:15:32;;;;;;;;;;;;;;;26.48;38.12;102222.80;1859138;77;20157;-61
2021/11/13 08:18:00;;;;;;;;;;;;;;;26.72;37.72;102223.95;1859192;77;20115;-61
2021/11/13 08:20:29;;;;;;;;;;;;;;;27.12;37.58;102219.20;1859334;77;20150;-61
2021/11/13 08:22:57;;;;;;;;;;;;;;;27.29;36.53;102229.94;1859305;77;20145;-61
2021/11/13 08:25:25;;;;;;;;;;;;;;;27.37;36.78;102228.41;1859203;77;20122;-61
2021/11/13 08:27:53;;;;;;;;;;;;;;;26.90;36.08;102228.30;1859121;77;20107;-61
2021/11/13 08:30:22;;;;;;;;;;;;;;;26.60;35.94;102227.71;1859157;77;20123;-61
2021/11/13 08:32:50;;;;;;;;;;;;;;;25.56;37.03;102222.17;1859198;77;20107;-61
2021/11/13 08:35:18;;;;;;;;;;;;;;;24.38;37.80;102226.66;1859202;77;20153;-61
2021/11/13 08:37:46;;;;;;;;;;;;;;;24.51;37.39;102222.07;1859150;77;20151;-60
2021/11/13 08:40:14;;;;;;;;;;;;;;;23.46;38.56;102214.86;1859183;77;20153;-60
2021/11/13 08:42:42;;;;;;;;;;;;;;;23.06;39.34;102220.30;1859143;77;20182;-61
2021/11/13 08:45:11;;;;;;;;;;;;;;;22.59;39.98;102218.97;1859200;77;20149;-61
2021/11/13 08:47:41;;;;;;;;;;;;;;;21.83;39.47;102213.58;1859202;77;20115;-61
2021/11/13 08:50:11;;;;;;;;;;;;;;;21.35;40.56;102218.33;1859208;77;20130;-60
2021/11/13 08:52:39;;;;;;;;;;;;;;;21.55;40.75;102224.69;1859143;77;20411;-60
2021/11/13 08:55:07;;;;;;;;;;;;;;;22.96;38.94;102219.66;1859111;77;20373;-60
2021/11/13 08:57:35;;;;;;;;;;;;;;;24.06;37.33;102215.10;1859202;77;20111;-60
2021/11/13 09:00:04;;;;;;;;;;;;;;;25.02;36.49;102213.73;1859234;77;20118;-61
2021/11/13 09:02:32;;;;;;;;;;;;;;;25.92;35.60;102207.60;1859189;77;20381;-61
2021/11/13 09:05:01;;;;;;;;;;;;;;;26.37;35.60;102207.52;1859206;77;20157;-60
2021/11/13 09:07:29;;;;;;;;;;;;;;;26.83;35.11;102207.34;1859104;77;20119;-60
2021/11/13 09:09:57;;;;;;;;;;;;;;;26.77;34.58;102208.72;1853927;77;20149;-61
2021/11/13 09:12:27;;;;;;;;;;;;;;;26.75;34.36;102206.64;1850829;78;20123;-61
2021/11/13 09:14:57;;;;;;;;;;;;;;;26.30;35.02;102213.52;1851025;78;20119;-60
2021/11/13 09:17:26;;;;;;;;;;;;;;;26.12;35.22;102208.67;1850858;78;20396;-61
2021/11/13 09:19:54;;;;;;;;;;;;;;;24.33;37.10;102212.67;1850839;78;20150;-61
2021/11/13 09:22:22;;;;;;;;;;;;;;;22.98;38.80;102209.20;1850834;78;20198;-61
2021/11/13 09:24:49;;;;;;;;;;;;;;;21.83;40.07;102214.06;1850801;78;20504;-60
2021/11/13 09:27:18;;;;;;;;;;;;;;;20.92;41.37;102216.43;1850861;78;20115;-60
2021/11/13 09:29:45;;;;;;;;;;;;;;;20.19;42.55;102213.48;1850870;78;20123;-61
2021/11/13 09:32:13;;;;;;;;;;;;;;;20.33;42.68;102218.07;1850810;78;20123;-61
2021/11/13 09:34:41;;;;;;;;;;;;;;;20.98;41.99;102216.05;1850999;78;20161;-61
2021/11/13 09:37:09;;;;;;;;;;;;;;;22.25;40.00;102206.41;1850849;78;20111;-61
2021/11/13 09:39:36;;;;;;;;;;;;;;;22.45;39.91;102208.31;1850863;78;20122;-61
2021/11/13 09:42:04;;;;;;;;;;;;;;;23.64;38.33;102210.47;1850869;78;20115;-60
2021/11/13 09:44:32;;;;;;;;;;;;;;;22.66;39.67;102211.38;1850838;78;20115;-61
2021/11/13 09:47:01;;;;;;;;;;;;;;;21.53;41.16;102215.89;1850981;78;20154;-61
2021/11/13 09:49:29;;;;;;;;;;;;;;;20.68;42.26;102218.74;1850752;78;20214;-61
2021/11/13 09:51:58;;;;;;;;;;;;;;;20.24;43.08;102212.27;1850788;78;20145;-60
2021/11/13 09:54:26;;;;;;;;;;;;;;;21.14;42.07;102213.33;1850826;78;20127;-60
2021/11/13 09:56:56;;;;;;;;;;;;;;;21.90;40.99;102209.55;1850811;78;20146;-60
2021/11/13 09:59:23;;;;;;;;;;;;;;;23.62;37.97;102203.00;1850697;78;20123;-60
2021/11/13 10:01:51;;;;;;;;;;;;;;;24.85;36.63;102210.14;1850692;78;20205;-61
2021/11/13 10:04:19;;;;;;;;;;;;;;;25.59;35.63;102213.35;1850814;78;20136;-61
2021/11/13 10:06:48;;;;;;;;;;;;;;;25.84;35.04;102210.52;1850850;78;20149;-60
2021/11/13 10:09:16;;;;;;;;;;;;;;;25.38;35.25;102211.88;1850765;77;20119;-61
2021/11/13 10:11:48;;;;;;;;;;;;;;;25.67;35.17;102214.08;1850786;78;20122;-61
2021/11/13 10:14:17;;;;;;;;;;;;;;;26.17;34.79;102212.33;1850708;78;20115;-61
2021/11/13 10:16:49;;;;;;;;;;;;;;;26.39;34.59;102210.94;1850794;78;20409;-61
2021/11/13 10:19:17;;;;;;;;;;;;;;;26.66;34.15;102216.88;1850870;78;20119;-61
2021/11/13 10:21:47;;;;;;;;;;;;;;;26.91;33.98;102209.75;1850799;78;20377;-61
2021/11/13 10:24:16;;;;;;;;;;;;;;;26.96;33.88;102207.52;1850334;78;20119;-60
2021/11/13 10:26:45;;;;;;;;;;;;;;;26.98;33.65;102209.22;1850487;78;20110;-61
2021/11/13 10:29:15;;;;;;;;;;;;;;;27.00;33.47;102205.88;1850733;78;20119;-60
2021/11/13 10:31:47;;;;;;;;;;;;;;;27.04;33.48;102201.92;1869533;76;20398;-58
2021/11/13 10:34:16;;;;;;;;;;;;;;;26.87;33.75;102201.55;1885569;76;20473;-59
2021/11/13 10:36:46;;;;;;;;;;;;;;;26.77;33.82;102199.27;1886205;76;20104;-60
2021/11/13 10:39:15;;;;;;;;;;;;;;;26.66;34.29;102196.63;1891638;76;20147;-60
2021/11/13 10:41:47;;;;;;;;;;;;;;;26.62;34.14;102200.08;1872571;76;20361;-60
2021/11/13 10:44:16;;;;;;;;;;;;;;;26.47;34.06;102203.55;1850742;78;20115;-60
2021/11/13 10:46:46;;;;;;;;;;;;;;;25.86;34.84;102200.45;1865423;76;20369;-59
2021/11/13 10:49:14;;;;;;;;;;;;;;;24.25;36.78;102200.68;1882157;76;20156;-59
2021/11/13 10:51:43;;;;;;;;;;;;;;;23.09;38.28;102203.10;1867813;76;20119;-59
2021/11/13 10:54:12;;;;;;;;;;;;;;;23.69;37.78;102205.63;1850737;77;20138;-60
2021/11/13 10:56:45;;;;;;;;;;;;;;;24.45;36.42;102206.39;1851005;78;20154;-60
2021/11/13 10:59:13;;;;;;;;;;;;;;;24.85;36.18;102214.19;1850736;78;20385;-60
2021/11/13 11:01:45;;;;;;;;;;;;;;;25.28;35.80;102205.98;1869179;76;20128;-60
2021/11/13 11:04:14;;;;;;;;;;;;;;;25.41;35.23;102199.48;1891207;76;20109;-60
2021/11/13 11:06:45;;;;;;;;;;;;;;;25.01;35.56;102202.59;1872986;76;20190;-61
2021/11/13 11:09:20;;;;;;;;;;;;;;;23.58;37.08;102198.81;1850820;78;20119;-61
2021/11/13 11:11:48;;;;;;;;;;;;;;;23.69;37.09;102194.88;1875808;76;20124;-60
2021/11/13 11:14:18;;;;;;;;;;;;;;;23.67;37.33;102199.51;1894268;76;20120;-60
2021/11/13 11:16:47;;;;;;;;;;;;;;;23.39;37.75;102194.75;1885447;76;20422;-60
2021/11/13 11:19:18;;;;;;;;;;;;;;;22.92;38.38;102202.41;1886755;76;20112;-60
2021/11/13 11:21:53;;;;;;;;;;;;;;;21.96;39.35;102206.47;1881029;76;20121;-61
2021/11/13 11:24:25;;;;;;;;;;;;;;;21.05;40.44;102207.19;1862803;76;20107;-60
2021/11/13 11:26:58;;;;;;;;;;;;;;;20.31;41.50;102207.45;1878067;76;20422;-60
2021/11/13 11:29:27;;;;;;;;;;;;;;;19.57;42.56;102207.48;1894123;76;20478;-59
2021/11/13 11:31:56;;;;;;;;;;;;;;;18.93;43.57;102205.53;1875157;76;20389;-63
2021/11/13 11:34:25;;;;;;;;;;;;;;;18.44;44.26;102209.67;1859213;77;20107;-63
2021/11/13 11:36:54;;;;;;;;;;;;;;;17.97;44.94;102206.14;1877667;76;20108;-65
2021/11/13 11:39:23;;;;;;;;;;;;;;;17.70;45.51;102209.58;1894255;76;20407;-63
2021/11/13 11:41:52;;;;;;;;;;;;;;;17.47;45.83;102207.97;1875902;76;20119;-61
2021/11/13 11:44:20;;;;;;;;;;;;;;;17.18;46.33;102210.10;1859396;77;20408;-61
2021/11/13 11:46:48;;;;;;;;;;;;;;;17.02;46.62;102213.02;1876638;76;20108;-61
2021/11/13 11:49:16;;;;;;;;;;;;;;;16.81;46.83;102218.29;1894207;76;20140;-61
2021/11/13 11:51:45;;;;;;;;;;;;;;;16.65;47.15;102219.84;1877677;76;20118;-61
2021/11/13 11:54:13;;;;;;;;;;;;;;;16.53;47.31;102216.77;1859007;77;20118;-61
2021/11/13 11:56:41;;;;;;;;;;;;;;;16.46;47.48;102216.61;1875013;76;20155;-62
2021/11/13 11:59:09;;;;;;;;;;;;;;;16.38;47.67;102218.73;1894216;76;20290;-61
2021/11/13 12:01:39;;;;;;;;;;;;;;;16.28;47.88;102223.52;1879277;76;20131;-63
2021/11/13 12:04:08;;;;;;;;;;;;;;;16.23;48.06;102215.33;1859190;77;20119;-63
2021/11/13 12:06:43;;;;;;;;;;;;;;;16.20;48.11;102215.85;1859039;77;20119;-64
2021/11/13 12:09:11;;;;;;;;;;;;;;;16.15;48.25;102212.97;1859207;77;20204;-60
2021/11/13 12:11:39;;;;;;;;;;;;;;;16.11;48.25;102216.69;1859135;77;20106;-65
2021/11/13 12:14:31;;;;;;;;;;;;;;;16.08;48.39;102222.96;1859106;77;20122;-68
2021/11/13 12:16:58;;;;;;;;;;;;;;;16.03;48.44;102218.31;1858395;77;20122;-68
2021/11/13 12:19:25;;;;;;;;;;;;;;;15.96;48.57;102218.14;1856968;77;20204;-66
2021/11/13 12:21:55;;;;;;;;;;;;;;;15.86;48.73;102221.62;1859222;77;20123;-64
2021/11/13 12:24:22;;;;;;;;;;;;;;;15.82;48.89;102216.88;1858732;77;20115;-61
2021/11/13 12:27:01;;;;;;;;;;;;;;;15.71;49.11;102219.01;1877261;76;20158;-61
2021/11/13 12:29:30;;;;;;;;;;;;;;;15.66;49.24;102221.00;1894169;76;20167;-65
2021/11/13 12:31:58;;;;;;;;;;;;;;;15.56;49.41;102215.60;1873544;76;20217;-63
2021/11/13 12:34:29;;;;;;;;;;;;;;;15.42;49.64;102220.95;1890330;76;20120;-61
2021/11/13 12:37:00;;;;;;;;;;;;;;;15.40;49.67;102219.26;1873133;76;20385;-62
2021/11/13 12:39:29;;;;;;;;;;;;;;;15.33;49.79;102215.98;1859134;77;20381;-64
2021/11/13 12:42:03;;;;;;;;;;;;;;;15.33;49.86;102219.10;1850423;77;20118;-67
2021/11/13 12:44:32;;;;;;;;;;;;;;;15.27;49.83;102221.52;1859174;77;20123;-66
2021/11/13 12:47:07;;;;;;;;;;;;;;;15.19;50.07;102220.42;1876124;76;20226;-66
2021/11/13 12:49:38;;;;;;;;;;;;;;;15.22;50.06;102220.80;1890005;76;20447;-63